Flight Track Log - Related Links

Times and Time Zones

All times are in EDT time to prevent confusion due to time zone crossing. See the FLG4262 flight status page for this flight to view local times or setup timezone preferences in your user account.

Time Position Orientation Groundspeed Altitude Reporting Facility
EDT Latitude Longitude Course Direction KTS MPH feet Rate Location/Type
Sun 03:46:41 PM 42.1947 -83.3514 193° South 150 173 1,300  Level Cleveland Center
Sun 03:46:54 PM 42.1883 -83.3533 193° South 146 168 1,800 2,025 Climbing Cleveland Center
Sun 03:48:01 PM 42.1283 -83.3419 172° South 202 232 4,000 1,663 Climbing Cleveland Center
Sun 03:48:17 PM 42.1222 -83.3400 167° South 194 223 4,100 1,770 Climbing Cleveland Center
Sun 03:49:02 PM 42.0586 -83.3239 169° South 278 320 5,800 2,323 Climbing Cleveland Center
Sun 03:49:19 PM 42.0456 -83.3081 138° Southeast 257 296 6,500 2,700 Climbing Cleveland Center
Sun 03:50:02 PM 42.0364 -83.2308 99° East 299 344 8,500 2,613 Climbing Cleveland Center
Sun 03:50:21 PM 42.0458 -83.2017 66° East 288 331 9,200 1,902 Climbing Cleveland Center
Sun 03:51:24 PM 42.0886 -83.1036 60° Northeast 306 352 11,100 1,392 Climbing Cleveland Center
Sun 03:52:26 PM 42.1342 -82.9922 61° Northeast 352 405 12,100 1,306 Climbing Cleveland Center
Sun 03:53:28 PM 42.1883 -82.8742 58° Northeast 374 430 13,800 1,645 Climbing Cleveland Center
Sun 03:54:30 PM 42.2392 -82.7528 60° Northeast 375 432 15,500 1,742 Climbing Cleveland Center
Sun 03:55:32 PM 42.3019 -82.6069 60° Northeast 376 433 17,400 1,452 Climbing Cleveland Center
Sun 03:56:34 PM 42.3544 -82.4825 60° Northeast 380 437 18,500 919 Climbing Cleveland Center
Sun 03:57:36 PM 42.3619 -82.3333 86° East 401 461 19,300 774 Climbing Cleveland Center
Sun 03:58:38 PM 42.3561 -82.1775 93° East 413 475 20,100 823 Climbing Cleveland Center
Sun 03:59:40 PM 42.3489 -82.0092 93° East 423 487 21,000 823 Climbing Cleveland Center
Sun 04:00:42 PM 42.3419 -81.8464 93° East 428 493 21,800 774 Climbing Cleveland Center
Sun 04:01:44 PM 42.3342 -81.6814 94° East 434 499 22,600 871 Climbing Cleveland Center
Sun 04:02:46 PM 42.3253 -81.4889 94° East 436 502 23,600 726 Climbing Cleveland Center
Sun 04:03:48 PM 42.3178 -81.3217 93° East 439 505 24,100 480 Climbing Cleveland Center
Sun 04:04:51 PM 42.3081 -81.1528 94° East 445 512 24,600 432 Climbing Cleveland Center
Sun 04:05:53 PM 42.2994 -80.9831 94° East 447 514 25,000 194 Climbing Cleveland Center
Sun 04:06:55 PM 42.2908 -80.8108 94° East 453 521 25,000 -242 Level Cleveland Center
Sun 04:07:57 PM 42.2811 -80.6369 94° East 458 527 24,500 -677 Descending Cleveland Center
Sun 04:08:59 PM 42.2711 -80.4522 94° East 479 551 23,600 -677 Descending Cleveland Center
Sun 04:10:01 PM 42.2608 -80.2764 94° East 470 541 23,100 -290 Descending Cleveland Center
Sun 04:11:03 PM 42.2503 -80.0789 94° East 453 521 23,000 -48 Descending Cleveland Center
Sun 04:12:05 PM 42.2489 -79.9069 91° East 446 513 23,000  Level Cleveland Center
Sun 04:13:07 PM 42.2494 -79.7372 90° East 452 520 23,000  Level Cleveland Center
Sun 04:14:09 PM 42.2500 -79.5650 90° East 459 528 23,000  Level Cleveland Center
Sun 04:15:11 PM 42.2497 -79.3933 90° East 461 531 23,000  Level Cleveland Center
Sun 04:16:13 PM 42.2503 -79.2192 90° East 464 534 23,000  Level Cleveland Center
Sun 04:17:15 PM 42.2506 -79.0100 90° East 467 537 23,000  Level Cleveland Center
Sun 04:18:18 PM 42.2508 -78.8469 90° East 464 534 23,000  Level Cleveland Center
Sun 04:19:20 PM 42.2494 -78.6739 91° East 463 533 23,000 -48 Level Cleveland Center
Sun 04:20:22 PM 42.2497 -78.5028 90° East 460 529 22,900 -629 Descending Cleveland Center
Sun 04:21:24 PM 42.2475 -78.2994 91° East 456 525 21,700 -1,065 Descending Cleveland Center
Sun 04:22:26 PM 42.2475 -78.1353 90° East 445 512 20,700 -968 Descending Cleveland Center
Sun 04:23:28 PM 42.2456 -77.9725 91° East 440 506 19,700 -968 Descending Cleveland Center
Sun 04:24:30 PM 42.2442 -77.8111 91° East 435 501 18,700 -968 Descending Cleveland Center
Sun 04:25:32 PM 42.2422 -77.6511 91° East 432 497 17,700 -871 Descending Cleveland Center
Sun 04:26:34 PM 42.2397 -77.4614 91° East 428 493 16,900 -387 Descending Cleveland Center
Sun 04:27:36 PM 42.2369 -77.3039 91° East 426 490 16,900  Level Cleveland Center
Sun 04:28:38 PM 42.2342 -77.1442 91° East 428 493 16,900 -484 Level Cleveland Center
Sun 04:29:40 PM 42.2311 -76.9869 91° East 423 487 15,900 -1,344 Descending Cleveland Center
Sun 04:30:43 PM 42.2300 -76.8319 91° East 419 482 14,100 -2,160 Descending Cleveland Center
Sun 04:31:45 PM 42.2242 -76.6517 92° East 403 464 11,400 -2,081 Descending Cleveland Center
Sun 04:32:47 PM 42.2222 -76.5183 91° East 362 417 9,800 -1,355 Descending Cleveland Center
Sun 04:33:49 PM 42.2206 -76.4075 91° East 302 348 8,600 -1,488 Descending Cleveland Center
Sun 04:34:48 PM 42.2147 -76.3089 95° East 296 341 6,800 -1,916 Descending New York Center
Sun 04:35:48 PM 42.2297 -76.2122 78° East 268 308 4,800 -1,800 Descending New York Center
Sun 04:36:48 PM 42.2564 -76.1247 68° East 255 293 3,200 -850 Descending New York Center
Sun 04:37:48 PM 42.2764 -76.0508 70° East 230 265 3,100 -450 Descending New York Center
Sun 04:38:48 PM 42.2450 -76.0089 135° Southeast 148 170 2,300 -450 Descending New York Center
Sun 04:39:48 PM 42.2308 -75.9519 109° East 148 170 2,200 -100 Descending New York Center

Login

Don't have an account? Register now (free) for customized features, flight alerts, and more!